createdAt,value
2018-06-15T00:00:59.754Z,81.15
2018-06-15T00:03:28.627Z,80.83
2018-06-15T00:05:57.487Z,80.87
2018-06-15T00:08:26.385Z,81.01
2018-06-15T00:10:55.192Z,81.43
2018-06-15T00:13:24.038Z,81.10
2018-06-15T00:15:52.943Z,80.80
2018-06-15T00:18:21.833Z,81.10
2018-06-15T00:20:50.674Z,80.65
2018-06-15T00:23:19.533Z,80.91
2018-06-15T00:25:48.386Z,81.04
2018-06-15T00:28:18.301Z,81.01
2018-06-15T00:30:47.196Z,80.72
2018-06-15T00:33:16.079Z,81.39
2018-06-15T00:35:44.957Z,81.11
2018-06-15T00:38:14.118Z,80.91
2018-06-15T00:40:42.957Z,81.66
2018-06-15T00:43:12.053Z,81.74
2018-06-15T00:45:40.899Z,81.30
2018-06-15T00:48:10.909Z,82.20
2018-06-15T00:50:39.847Z,81.88
2018-06-15T00:53:08.710Z,81.28
2018-06-15T00:55:37.619Z,81.58
2018-06-15T00:58:06.526Z,81.15
2018-06-15T01:00:35.429Z,81.28
2018-06-15T01:03:04.354Z,81.11
2018-06-15T01:05:33.302Z,81.01
2018-06-15T01:08:02.283Z,80.75
2018-06-15T01:10:31.176Z,80.85
2018-06-15T01:13:00.015Z,80.50
2018-06-15T01:15:28.950Z,81.18
2018-06-15T01:17:57.877Z,81.29
2018-06-15T01:20:26.856Z,81.67
2018-06-15T01:22:55.893Z,81.81
2018-06-15T01:25:24.803Z,81.57
2018-06-15T01:27:53.708Z,82.02
2018-06-15T01:30:22.570Z,81.61
2018-06-15T01:32:51.421Z,81.91
2018-06-15T01:35:20.294Z,81.25
2018-06-15T01:37:49.142Z,81.09
2018-06-15T01:40:18.004Z,81.65
2018-06-15T01:42:46.925Z,81.80
2018-06-15T01:45:15.825Z,81.76
2018-06-15T01:47:44.714Z,81.52
2018-06-15T01:50:13.618Z,81.48
2018-06-15T01:52:42.577Z,81.42
2018-06-15T01:55:11.477Z,81.29
2018-06-15T01:57:40.400Z,80.92
2018-06-15T02:00:09.394Z,80.91
2018-06-15T02:02:38.241Z,81.09
2018-06-15T02:05:07.112Z,81.23
2018-06-15T02:07:36.035Z,80.83
2018-06-15T02:10:05.189Z,81.30
2018-06-15T02:12:34.074Z,81.50
2018-06-15T02:15:02.990Z,81.94
2018-06-15T02:17:35.128Z,81.90
2018-06-15T02:20:04.473Z,82.56
2018-06-15T02:22:33.418Z,82.71
2018-06-15T02:25:02.319Z,82.76
2018-06-15T02:27:31.229Z,82.94
2018-06-15T02:30:00.134Z,82.30
2018-06-15T02:32:29.056Z,82.10
2018-06-15T02:34:57.952Z,82.55
2018-06-15T02:37:26.831Z,82.56
2018-06-15T02:39:55.802Z,82.07
2018-06-15T02:42:24.731Z,82.17
2018-06-15T02:44:53.645Z,82.47
2018-06-15T02:47:22.549Z,82.57
2018-06-15T02:49:51.457Z,83.22
2018-06-15T02:52:20.379Z,83.20
2018-06-15T02:54:49.265Z,83.20
2018-06-15T02:57:18.153Z,83.00
2018-06-15T02:59:47.069Z,82.73
2018-06-15T03:02:15.985Z,83.03
2018-06-15T03:04:44.860Z,82.85
2018-06-15T03:07:13.755Z,83.09
2018-06-15T03:09:42.693Z,82.82
2018-06-15T03:12:11.584Z,82.74
2018-06-15T03:14:40.509Z,82.90
2018-06-15T03:17:09.408Z,83.00
2018-06-15T03:19:38.689Z,83.06
2018-06-15T03:22:07.668Z,82.89
2018-06-15T03:24:37.980Z,82.85
2018-06-15T03:27:10.719Z,82.53
2018-06-15T03:29:39.627Z,82.72
2018-06-15T03:32:08.589Z,82.43
2018-06-15T03:34:37.511Z,82.42
2018-06-15T03:37:06.482Z,82.44
2018-06-15T03:39:35.376Z,82.32
2018-06-15T03:42:04.261Z,82.52
2018-06-15T03:44:33.283Z,81.90
2018-06-15T03:47:02.170Z,82.15
2018-06-15T03:49:31.012Z,81.99
2018-06-15T03:51:59.920Z,81.89
2018-06-15T03:54:28.854Z,81.92
2018-06-15T03:56:57.728Z,82.24
2018-06-15T03:59:26.579Z,81.85
2018-06-15T04:01:55.492Z,81.67
2018-06-15T04:04:24.936Z,81.59
2018-06-15T04:06:53.865Z,81.74
2018-06-15T04:09:22.817Z,81.84
2018-06-15T04:11:51.714Z,81.98
2018-06-15T04:14:20.596Z,82.03
2018-06-15T04:16:49.484Z,82.30
2018-06-15T04:19:18.323Z,81.67
2018-06-15T04:21:47.214Z,81.48
2018-06-15T04:24:17.292Z,81.80
2018-06-15T04:26:46.210Z,81.94
2018-06-15T04:29:15.042Z,80.94
2018-06-15T04:31:43.946Z,80.41
2018-06-15T04:34:13.210Z,79.74
2018-06-15T04:36:42.140Z,79.42
2018-06-15T04:39:11.693Z,78.67
2018-06-15T04:41:40.595Z,77.44
2018-06-15T04:44:09.472Z,75.54
2018-06-15T04:46:38.392Z,73.35
2018-06-15T04:49:07.281Z,72.54
2018-06-15T04:51:36.205Z,73.51
2018-06-15T04:54:05.143Z,74.10
2018-06-15T04:56:34.028Z,74.58
2018-06-15T04:59:02.943Z,73.38
2018-06-15T05:01:31.853Z,71.56
2018-06-15T05:04:00.779Z,69.45
2018-06-15T05:06:29.709Z,67.24
2018-06-15T05:08:59.110Z,62.84
2018-06-15T05:11:28.075Z,59.86
2018-06-15T05:14:04.473Z,55.76
2018-06-15T05:16:33.646Z,55.16
2018-06-15T05:19:02.520Z,54.25
2018-06-15T05:21:31.452Z,52.11
2018-06-15T05:24:00.322Z,50.32
2018-06-15T05:26:29.186Z,49.81
2018-06-15T05:28:59.100Z,48.34
2018-06-15T05:31:28.055Z,48.09
2018-06-15T05:33:56.944Z,46.97
2018-06-15T05:36:25.841Z,42.84
2018-06-15T05:38:54.784Z,42.69
2018-06-15T05:41:23.704Z,44.23
2018-06-15T05:43:52.625Z,42.71
2018-06-15T05:46:28.741Z,42.26
2018-06-15T05:48:57.644Z,42.73
2018-06-15T05:51:26.549Z,40.02
2018-06-15T05:53:55.416Z,41.40
2018-06-15T05:56:24.301Z,42.75
2018-06-15T05:58:53.186Z,43.96
2018-06-15T06:01:22.108Z,47.22
2018-06-15T06:03:52.624Z,47.62
2018-06-15T06:06:21.943Z,49.01
2018-06-15T06:08:50.839Z,46.80
2018-06-15T06:11:19.799Z,48.78
2018-06-15T06:13:48.753Z,51.52
2018-06-15T06:16:17.685Z,52.34
2018-06-15T06:18:46.573Z,47.24
2018-06-15T06:21:15.502Z,45.05
2018-06-15T06:23:44.414Z,46.35
2018-06-15T06:26:14.082Z,43.17
2018-06-15T06:28:43.013Z,41.04
2018-06-15T06:31:11.848Z,34.70
2018-06-15T06:33:40.667Z,32.33
2018-06-15T06:36:09.540Z,37.07
2018-06-15T06:38:38.388Z,36.92
2018-06-15T06:41:07.304Z,36.13
2018-06-15T06:43:36.190Z,34.32
2018-06-15T06:46:05.094Z,34.86
2018-06-15T06:48:33.956Z,31.99
2018-06-15T06:51:02.914Z,33.48
2018-06-15T06:53:31.909Z,33.25
2018-06-15T06:56:00.768Z,33.44
2018-06-15T06:58:29.606Z,33.33
2018-06-15T07:00:58.532Z,32.92
2018-06-15T07:03:27.379Z,33.01
2018-06-15T07:05:56.234Z,37.19
2018-06-15T07:08:25.140Z,33.46
2018-06-15T07:10:54.013Z,33.17
2018-06-15T07:13:22.929Z,35.58
2018-06-15T07:15:51.801Z,33.52
2018-06-15T07:18:20.690Z,31.83
2018-06-15T07:20:49.593Z,32.70
2018-06-15T07:23:18.415Z,26.85
2018-06-15T07:25:47.243Z,28.45
2018-06-15T07:28:16.089Z,30.04
2018-06-15T07:30:44.925Z,28.04
2018-06-15T07:33:13.790Z,25.35
2018-06-15T07:35:42.625Z,26.25
2018-06-15T07:38:11.506Z,25.93
2018-06-15T07:40:40.366Z,25.44
2018-06-15T07:43:09.223Z,24.53
2018-06-15T07:45:38.034Z,25.69
2018-06-15T07:48:22.159Z,25.73
2018-06-15T07:50:51.016Z,25.91
2018-06-15T07:53:19.833Z,25.74
2018-06-15T07:55:48.678Z,27.53
2018-06-15T07:58:17.535Z,26.14
2018-06-15T08:00:46.437Z,25.62
2018-06-15T08:03:15.302Z,26.65
2018-06-15T08:05:44.162Z,27.37
2018-06-15T08:08:13.453Z,27.20
2018-06-15T08:10:42.340Z,29.67
2018-06-15T08:13:11.264Z,33.16
2018-06-15T08:15:40.138Z,34.62
2018-06-15T08:18:08.968Z,32.54
2018-06-15T08:20:37.847Z,29.64
2018-06-15T08:23:06.709Z,29.84
2018-06-15T08:25:35.564Z,29.88
2018-06-15T08:28:04.449Z,30.42
2018-06-15T08:30:33.314Z,29.66
2018-06-15T08:33:02.249Z,27.46
2018-06-15T08:35:31.170Z,25.80
2018-06-15T08:38:00.032Z,27.59
2018-06-15T08:40:28.909Z,28.18
2018-06-15T08:42:57.786Z,29.62
2018-06-15T08:45:26.687Z,29.37
2018-06-15T08:47:55.521Z,29.22
2018-06-15T08:50:24.388Z,32.00
2018-06-15T08:52:53.300Z,28.09
2018-06-15T08:55:22.192Z,28.33
2018-06-15T08:57:51.058Z,26.75
2018-06-15T09:00:19.999Z,27.22
2018-06-15T09:02:48.864Z,29.06
2018-06-15T09:05:17.760Z,27.59
2018-06-15T09:07:46.653Z,23.97
2018-06-15T09:10:15.556Z,26.24
2018-06-15T09:12:44.436Z,29.84
2018-06-15T09:15:13.353Z,30.76
2018-06-15T09:17:42.263Z,33.18
2018-06-15T09:20:11.165Z,35.11
2018-06-15T09:22:40.040Z,36.24
2018-06-15T09:25:08.937Z,36.37
2018-06-15T09:27:38.641Z,37.83
2018-06-15T09:30:07.564Z,36.78
2018-06-15T09:32:36.491Z,35.63
2018-06-15T09:35:05.479Z,34.65
2018-06-15T09:37:34.350Z,31.46
2018-06-15T09:40:03.271Z,32.46
2018-06-15T09:42:32.664Z,32.37
2018-06-15T09:45:01.599Z,32.14
2018-06-15T09:47:30.512Z,33.96
2018-06-15T09:49:59.369Z,33.78
2018-06-15T09:52:28.213Z,34.49
2018-06-15T09:54:57.130Z,32.22
2018-06-15T09:57:26.002Z,31.38
2018-06-15T09:59:54.896Z,30.15
2018-06-15T10:02:23.707Z,33.21
2018-06-15T10:04:52.569Z,34.13
2018-06-15T10:07:21.454Z,35.09
2018-06-15T10:09:50.309Z,34.78
2018-06-15T10:12:19.187Z,33.62
2018-06-15T10:14:48.073Z,32.98
2018-06-15T10:17:16.932Z,33.21
2018-06-15T10:19:45.839Z,33.15
2018-06-15T10:22:14.783Z,31.42
2018-06-15T10:24:43.662Z,30.63
2018-06-15T10:27:12.566Z,31.62
2018-06-15T10:29:41.619Z,33.53
2018-06-15T10:32:10.524Z,33.73
2018-06-15T10:34:39.437Z,33.79
2018-06-15T10:37:08.273Z,34.84
2018-06-15T10:39:37.163Z,35.63
2018-06-15T10:42:06.084Z,35.92
2018-06-15T10:44:34.993Z,35.92
2018-06-15T10:47:04.194Z,37.91
2018-06-15T10:49:33.093Z,37.28
2018-06-15T10:52:02.118Z,36.92
2018-06-15T10:54:31.022Z,40.11
2018-06-15T10:56:59.961Z,36.60
2018-06-15T10:59:28.855Z,35.35
2018-06-15T11:01:58.337Z,32.97
2018-06-15T11:04:27.209Z,32.65
2018-06-15T11:06:56.137Z,32.12
2018-06-15T11:09:25.048Z,32.25
2018-06-15T11:11:53.952Z,31.17
2018-06-15T11:14:22.853Z,31.93
2018-06-15T11:16:51.779Z,31.65
2018-06-15T11:19:20.624Z,31.81
2018-06-15T11:21:49.531Z,31.04
2018-06-15T11:24:18.461Z,31.43
2018-06-15T11:26:47.369Z,32.62
2018-06-15T11:29:16.301Z,33.50
2018-06-15T11:31:45.237Z,34.42
2018-06-15T11:34:14.169Z,34.80
2018-06-15T11:36:43.052Z,35.66
2018-06-15T11:39:11.974Z,35.12
2018-06-15T11:41:40.832Z,34.56
2018-06-15T11:44:09.739Z,36.41
2018-06-15T11:46:38.743Z,33.07
2018-06-15T11:49:07.669Z,32.90
2018-06-15T11:51:36.772Z,32.05
2018-06-15T11:54:05.706Z,32.58
2018-06-15T11:56:34.621Z,32.61
2018-06-15T11:59:03.531Z,31.94
2018-06-15T12:01:32.429Z,31.41
2018-06-15T12:04:01.297Z,32.44
2018-06-15T12:06:30.162Z,32.40
2018-06-15T12:08:59.026Z,29.92
2018-06-15T12:11:27.892Z,30.25
2018-06-15T12:14:02.912Z,29.15
2018-06-15T12:16:38.096Z,29.19
2018-06-15T12:19:17.047Z,30.41
2018-06-15T12:21:55.995Z,30.14
2018-06-15T12:24:32.366Z,30.44
2018-06-15T12:27:03.963Z,30.41
2018-06-15T12:29:39.495Z,29.01
2018-06-15T12:32:10.772Z,28.80
2018-06-15T12:34:41.995Z,29.35
2018-06-15T12:37:10.950Z,27.73
2018-06-15T12:39:39.921Z,28.76
2018-06-15T12:42:08.810Z,30.41
2018-06-15T12:44:37.710Z,28.26
2018-06-15T12:47:06.655Z,29.18
2018-06-15T12:49:35.642Z,28.90
2018-06-15T12:52:04.594Z,30.18
2018-06-15T12:54:33.475Z,32.58
2018-06-15T12:57:02.419Z,31.57
2018-06-15T12:59:31.358Z,32.71
2018-06-15T13:02:00.231Z,33.99
2018-06-15T13:04:29.108Z,32.56
2018-06-15T13:06:57.970Z,31.05
2018-06-15T13:09:26.965Z,31.58
2018-06-15T13:11:57.556Z,31.48
2018-06-15T13:14:30.979Z,30.44
2018-06-15T13:16:59.821Z,30.38
2018-06-15T13:19:28.749Z,30.67
2018-06-15T13:21:57.669Z,32.11
2018-06-15T13:24:26.591Z,33.31
2018-06-15T13:26:55.977Z,31.59
2018-06-15T13:29:24.908Z,31.57
2018-06-15T13:31:53.775Z,30.30
2018-06-15T13:34:22.620Z,30.15
2018-06-15T13:36:51.454Z,30.70
2018-06-15T13:39:20.309Z,30.54
2018-06-15T13:41:49.170Z,29.50
2018-06-15T13:44:18.092Z,29.48
2018-06-15T13:46:46.992Z,28.86
2018-06-15T13:49:16.027Z,29.21
2018-06-15T13:51:44.968Z,30.09
2018-06-15T13:54:13.860Z,29.00
2018-06-15T13:56:42.790Z,29.12
2018-06-15T13:59:11.685Z,27.73
2018-06-15T14:01:40.579Z,29.12
2018-06-15T14:04:09.556Z,29.54
2018-06-15T14:06:38.430Z,31.64
2018-06-15T14:09:08.882Z,30.20
2018-06-15T14:11:37.794Z,30.71
2018-06-15T14:14:07.595Z,31.25
2018-06-15T14:16:36.511Z,31.33
2018-06-15T14:19:05.396Z,30.61
2018-06-15T14:21:35.752Z,32.36
2018-06-15T14:24:04.746Z,30.92
2018-06-15T14:26:35.850Z,30.13
2018-06-15T14:29:05.219Z,30.17
2018-06-15T14:31:35.393Z,30.14
2018-06-15T14:34:04.442Z,30.19
2018-06-15T14:36:34.764Z,31.32
2018-06-15T14:39:08.207Z,31.82
2018-06-15T14:41:37.069Z,30.48
2018-06-15T14:44:06.035Z,30.38
2018-06-15T14:46:56.646Z,32.08
2018-06-15T14:49:25.504Z,31.69
2018-06-15T14:51:54.618Z,32.98
2018-06-15T14:54:23.574Z,33.43
2018-06-15T14:56:52.640Z,32.46
2018-06-15T14:59:21.595Z,34.06
2018-06-15T15:01:57.246Z,34.38
2018-06-15T15:04:26.216Z,33.31
2018-06-15T15:06:55.464Z,33.49
2018-06-15T15:09:26.576Z,33.19
2018-06-15T15:11:56.926Z,32.92
2018-06-15T15:14:27.141Z,32.88
2018-06-15T15:16:55.982Z,33.88
2018-06-15T15:19:24.886Z,34.69
2018-06-15T15:21:53.794Z,35.69
2018-06-15T15:24:23.967Z,35.57
2018-06-15T15:26:56.203Z,36.48
2018-06-15T15:29:26.046Z,35.73
2018-06-15T15:31:55.138Z,34.33
2018-06-15T15:34:24.005Z,34.42
2018-06-15T15:36:52.900Z,36.94
2018-06-15T15:39:23.146Z,36.80
2018-06-15T15:41:52.048Z,37.21
2018-06-15T15:44:27.765Z,37.29
2018-06-15T15:46:57.126Z,38.15
2018-06-15T15:49:26.069Z,38.56
2018-06-15T15:51:55.096Z,40.90
2018-06-15T15:54:24.011Z,35.75
2018-06-15T15:56:52.902Z,37.29
2018-06-15T15:59:21.892Z,36.52
2018-06-15T16:01:50.803Z,35.09
2018-06-15T16:04:19.677Z,35.02
2018-06-15T16:06:48.504Z,36.29
2018-06-15T16:09:17.463Z,35.06
2018-06-15T16:11:46.357Z,36.45
2018-06-15T16:14:15.352Z,34.14
2018-06-15T16:16:44.292Z,34.33
2018-06-15T16:19:13.125Z,35.67
2018-06-15T16:21:41.989Z,35.60
2018-06-15T16:24:10.941Z,36.30
2018-06-15T16:26:39.899Z,35.57
2018-06-15T16:29:18.213Z,34.58
2018-06-15T16:31:47.180Z,35.43
2018-06-15T16:34:16.171Z,35.63
2018-06-15T16:36:45.137Z,36.43
2018-06-15T16:39:14.002Z,34.31
2018-06-15T16:41:42.921Z,34.04
2018-06-15T16:44:11.867Z,34.76
2018-06-15T16:46:40.794Z,35.33
2018-06-15T16:49:09.753Z,35.69
2018-06-15T16:51:38.687Z,37.54
2018-06-15T16:54:07.531Z,36.85
2018-06-15T16:56:37.408Z,37.20
2018-06-15T16:59:06.466Z,37.19
2018-06-15T17:01:35.700Z,38.58
2018-06-15T17:04:04.570Z,38.28
2018-06-15T17:06:33.418Z,37.54
2018-06-15T17:09:02.457Z,39.79
2018-06-15T17:11:31.274Z,38.33
2018-06-15T17:14:00.229Z,37.66
2018-06-15T17:16:36.231Z,36.68
2018-06-15T17:19:05.176Z,39.26
2018-06-15T17:22:02.821Z,38.37
2018-06-15T17:24:55.435Z,37.82
2018-06-15T17:27:46.931Z,37.81
2018-06-15T17:30:43.358Z,38.82
2018-06-15T17:33:12.724Z,37.86
2018-06-15T17:35:42.444Z,37.57
2018-06-15T17:38:12.087Z,38.37
2018-06-15T17:40:40.940Z,39.27
2018-06-15T17:43:09.753Z,39.59
2018-06-15T17:45:39.509Z,39.47
2018-06-15T17:48:08.464Z,40.35
2018-06-15T17:50:37.356Z,39.84
2018-06-15T17:53:06.382Z,39.60
2018-06-15T17:55:35.230Z,40.47
2018-06-15T17:58:04.159Z,41.63
2018-06-15T18:00:33.016Z,41.73
2018-06-15T18:03:01.902Z,42.17
2018-06-15T18:05:30.758Z,42.66
2018-06-15T18:07:59.743Z,42.94
2018-06-15T18:10:29.855Z,43.25
2018-06-15T18:12:58.951Z,43.54
2018-06-15T18:15:31.348Z,43.50
2018-06-15T18:18:00.614Z,44.28
2018-06-15T18:20:29.872Z,43.67
2018-06-15T18:22:59.271Z,43.47
2018-06-15T18:25:28.660Z,43.06
2018-06-15T18:27:58.694Z,43.58
2018-06-15T18:30:28.090Z,43.55
2018-06-15T18:32:58.371Z,43.57
2018-06-15T18:35:27.593Z,43.45
2018-06-15T18:37:56.735Z,43.73
2018-06-15T18:40:26.315Z,43.62
2018-06-15T18:42:57.070Z,44.59
2018-06-15T18:45:26.649Z,44.54
2018-06-15T18:47:55.521Z,44.90
2018-06-15T18:50:24.380Z,45.20
2018-06-15T18:52:53.378Z,45.00
2018-06-15T18:55:26.265Z,45.59
2018-06-15T18:57:55.301Z,45.91
2018-06-15T19:00:24.575Z,45.80
2018-06-15T19:02:53.649Z,46.36
2018-06-15T19:05:22.784Z,46.36
2018-06-15T19:07:51.674Z,46.46
2018-06-15T19:10:20.735Z,47.17
2018-06-15T19:12:49.841Z,47.62
2018-06-15T19:15:18.959Z,46.95
2018-06-15T19:17:47.965Z,47.65
2018-06-15T19:20:17.099Z,47.66
2018-06-15T19:22:45.986Z,47.79
2018-06-15T19:25:14.909Z,48.02
2018-06-15T19:27:43.854Z,48.60
2018-06-15T19:30:12.729Z,48.31
2018-06-15T19:32:41.623Z,48.38
2018-06-15T19:35:10.470Z,48.56
2018-06-15T19:37:39.360Z,48.44
2018-06-15T19:40:08.318Z,49.58
2018-06-15T19:42:37.256Z,48.97
2018-06-15T19:45:06.253Z,48.61
2018-06-15T19:47:35.197Z,49.23
2018-06-15T19:50:04.169Z,48.76
2018-06-15T19:52:33.004Z,49.13
2018-06-15T19:55:01.848Z,49.93
2018-06-15T19:57:30.708Z,49.22
2018-06-15T19:59:59.674Z,50.24
2018-06-15T20:02:28.585Z,49.79
2018-06-15T20:04:57.573Z,50.24
2018-06-15T20:07:26.592Z,50.55
2018-06-15T20:09:55.553Z,50.68
2018-06-15T20:12:24.444Z,51.33
2018-06-15T20:14:53.356Z,51.71
2018-06-15T20:17:22.230Z,53.03
2018-06-15T20:19:51.045Z,53.03
2018-06-15T20:22:19.901Z,52.95
2018-06-15T20:24:48.763Z,53.55
2018-06-15T20:27:17.808Z,53.75
2018-06-15T20:29:46.709Z,53.80
2018-06-15T20:32:15.602Z,54.62
2018-06-15T20:34:44.507Z,54.47
2018-06-15T20:37:13.461Z,54.45
2018-06-15T20:39:42.414Z,55.25
2018-06-15T20:42:11.304Z,55.43
2018-06-15T20:44:40.258Z,55.24
2018-06-15T20:47:09.157Z,57.09
2018-06-15T20:49:38.060Z,57.70
2018-06-15T20:52:07.187Z,58.11
2018-06-15T20:54:36.242Z,57.39
2018-06-15T20:57:05.382Z,57.07
2018-06-15T20:59:34.259Z,57.67
2018-06-15T21:02:03.164Z,55.77
2018-06-15T21:04:32.086Z,55.22
2018-06-15T21:07:00.882Z,55.11
2018-06-15T21:09:29.731Z,55.38
2018-06-15T21:11:58.669Z,55.29
2018-06-15T21:14:27.520Z,54.78
2018-06-15T21:16:56.490Z,54.63
2018-06-15T21:19:25.336Z,54.74
2018-06-15T21:21:54.284Z,54.45
2018-06-15T21:24:23.114Z,54.84
2018-06-15T21:26:51.969Z,54.96
2018-06-15T21:29:20.851Z,56.45
2018-06-15T21:31:49.825Z,55.88
2018-06-15T21:34:18.675Z,55.24
2018-06-15T21:36:47.571Z,55.05
2018-06-15T21:39:16.562Z,55.32
2018-06-15T21:41:45.505Z,55.55
2018-06-15T21:44:14.393Z,54.67
2018-06-15T21:46:43.284Z,55.47
2018-06-15T21:49:12.182Z,54.73
2018-06-15T21:51:41.094Z,55.17
2018-06-15T21:54:10.006Z,54.62
2018-06-15T21:56:39.183Z,54.75
2018-06-15T21:59:08.230Z,55.54
2018-06-15T22:01:37.250Z,55.40
2018-06-15T22:04:06.175Z,55.30
2018-06-15T22:06:35.081Z,54.92
2018-06-15T22:09:05.613Z,54.75
2018-06-15T22:11:34.509Z,54.41
2018-06-15T22:14:03.339Z,54.91
2018-06-15T22:16:38.413Z,54.13
2018-06-15T22:19:07.355Z,53.82
2018-06-15T22:21:36.449Z,53.35
2018-06-15T22:24:05.394Z,52.44
2018-06-15T22:26:34.245Z,52.43
2018-06-15T22:29:03.165Z,51.31
2018-06-15T22:31:33.466Z,51.11
2018-06-15T22:34:02.329Z,50.81
2018-06-15T22:36:31.216Z,50.74
2018-06-15T22:39:00.109Z,50.72
2018-06-15T22:41:28.974Z,50.18
2018-06-15T22:43:57.917Z,49.52
2018-06-15T22:46:26.755Z,50.55
2018-06-15T22:48:55.603Z,50.80
2018-06-15T22:51:24.537Z,50.03
2018-06-15T22:53:53.428Z,51.21
2018-06-15T22:56:22.395Z,50.67
2018-06-15T22:58:51.325Z,50.86
2018-06-15T23:01:20.201Z,49.98
2018-06-15T23:03:49.109Z,51.73
2018-06-15T23:06:18.081Z,53.28
2018-06-15T23:08:46.949Z,54.42
2018-06-15T23:11:15.918Z,55.66
2018-06-15T23:13:44.801Z,54.00
2018-06-15T23:16:13.701Z,52.74
2018-06-15T23:18:42.587Z,55.12
2018-06-15T23:21:11.442Z,53.79
2018-06-15T23:23:40.496Z,52.79
2018-06-15T23:26:09.490Z,52.39
2018-06-15T23:28:38.407Z,52.37
2018-06-15T23:31:07.399Z,52.56
2018-06-15T23:33:36.297Z,51.80
2018-06-15T23:36:05.186Z,52.57
2018-06-15T23:38:34.072Z,52.32
2018-06-15T23:41:02.950Z,51.97
2018-06-15T23:43:31.901Z,52.61
2018-06-15T23:46:00.777Z,53.62
2018-06-15T23:48:29.617Z,53.49
2018-06-15T23:50:58.464Z,51.35
2018-06-15T23:53:27.315Z,52.41
2018-06-15T23:55:56.303Z,52.70
2018-06-15T23:58:25.148Z,53.06
